KVEL/VEL METAR and TAF weather

Enter ICAO airport designator
Station Type Date Time Source
KVEL METAR 2022/06/28 14:53 UTC NOAA

KVEL 281453Z AUTO 08003KT 10SM CLR 22/04 A3033 RMK AO2 SLP199 T02220044 51011


Station Type Date Time Source
KVEL Decoded METAR 2022/06/28 14:53 UTC NOAA

VERNAL AIRPORT, UT, United States (KVEL) 40-26N 109-30W 1604M
Jun 28, 2022 - 10:53 AM EDT / 2022.06.28 1453 UTC
Wind: from the E (080 degrees) at 3 MPH (3 KT):0
Visibility: 10 mile(s):0
Sky conditions: clear
Temperature: 72.0 F (22.2 C)
Dew Point: 39.9 F (4.4 C)
Relative Humidity: 31%
Pressure (altimeter): 30.33 in. Hg (1027 hPa)
Pressure tendency: 0.03 inches (1.1 hPa) higher than three hours ago
ob: KVEL 281453Z AUTO 08003KT 10SM CLR 22/04 A3033 RMK AO2 SLP199 T02220044 51011
cycle: 15

Station Type Date Time Source
KVEL TAF 2022/06/28 12:22 UTC NOAA

TAF KVEL 281120Z 2812/2912 30005KT P6SM FEW120
FM282100 28014G23KT P6SM VCSH SCT100 SCT250
FM290200 35006KT P6SM SCT100

Example: see airport list